Anthem, Arizona
Current Conditions -  °F | °C
As of 5:53 PM on Wednesday 22 Oct 2014 (Local Time) from KDVT Reporting Station
Clear Clear  
Wind Chill: 85°   Ceiling: Unl
Heat Index: 85°   Visibility: 10mi
Dew Point: 47°   Wind: 3mph
Humidity: 27%   Direction: 210°SSW
Pressure: 29.92"   Gusts: NA
Location:  33.8348°N, 112.071°W
Report Text: KDVT 230053Z AUTO 21003KT 10SM CLR 29/08 A2992 RMK AO2 SLP109 T02940083 TSNO
Loading
Personal Weather Stations






























Interactive Weather Map New forecast layout! Learn more

10-Day Weather Forecast

Advertisements
Track Severe Weather on mobile